sensor_id;sensor_type;location;lat;lon;timestamp;P1;durP1;ratioP1;P2;durP2;ratioP2
55328;SDS011;41205;44.264;19.884;2024-03-23T00:53:26;40.83;;;24.65;;
55328;SDS011;41205;44.264;19.884;2024-03-23T00:55:53;39.20;;;22.98;;
55328;SDS011;41205;44.264;19.884;2024-03-23T00:58:19;38.97;;;23.25;;
55328;SDS011;41205;44.264;19.884;2024-03-23T01:00:45;31.40;;;19.63;;
55328;SDS011;41205;44.264;19.884;2024-03-23T01:03:11;23.55;;;15.70;;
55328;SDS011;41205;44.264;19.884;2024-03-23T01:05:36;53.10;;;30.73;;
55328;SDS011;41205;44.264;19.884;2024-03-23T01:08:02;27.60;;;18.58;;
55328;SDS011;41205;44.264;19.884;2024-03-23T01:10:28;94.78;;;56.20;;
55328;SDS011;41205;44.264;19.884;2024-03-23T01:12:54;28.33;;;18.42;;
55328;SDS011;41205;44.264;19.884;2024-03-23T01:15:20;37.47;;;22.35;;
55328;SDS011;41205;44.264;19.884;2024-03-23T01:17:46;50.70;;;29.23;;
55328;SDS011;41205;44.264;19.884;2024-03-23T01:20:11;31.13;;;21.38;;
55328;SDS011;41205;44.264;19.884;2024-03-23T01:22:37;32.58;;;22.40;;
55328;SDS011;41205;44.264;19.884;2024-03-23T01:25:03;47.28;;;25.52;;
55328;SDS011;41205;44.264;19.884;2024-03-23T01:27:29;36.90;;;21.98;;
55328;SDS011;41205;44.264;19.884;2024-03-23T01:29:55;40.45;;;26.40;;
55328;SDS011;41205;44.264;19.884;2024-03-23T01:32:21;27.80;;;16.88;;
55328;SDS011;41205;44.264;19.884;2024-03-23T01:34:46;22.63;;;15.52;;
55328;SDS011;41205;44.264;19.884;2024-03-23T01:37:12;27.35;;;16.80;;
55328;SDS011;41205;44.264;19.884;2024-03-23T01:39:38;28.35;;;17.25;;
55328;SDS011;41205;44.264;19.884;2024-03-23T01:42:04;111.30;;;81.63;;
55328;SDS011;41205;44.264;19.884;2024-03-23T01:44:30;65.80;;;43.70;;
55328;SDS011;41205;44.264;19.884;2024-03-23T01:46:56;39.33;;;31.23;;
55328;SDS011;41205;44.264;19.884;2024-03-23T01:49:22;36.10;;;26.55;;
55328;SDS011;41205;44.264;19.884;2024-03-23T01:51:48;45.78;;;28.88;;
55328;SDS011;41205;44.264;19.884;2024-03-23T01:54:15;58.50;;;35.20;;
55328;SDS011;41205;44.264;19.884;2024-03-23T01:56:41;86.35;;;48.50;;
55328;SDS011;41205;44.264;19.884;2024-03-23T01:59:07;58.65;;;35.70;;
55328;SDS011;41205;44.264;19.884;2024-03-23T02:01:34;37.08;;;23.50;;
55328;SDS011;41205;44.264;19.884;2024-03-23T02:04:03;56.28;;;35.05;;
55328;SDS011;41205;44.264;19.884;2024-03-23T02:06:30;60.35;;;37.75;;
55328;SDS011;41205;44.264;19.884;2024-03-23T02:08:56;98.53;;;60.92;;
55328;SDS011;41205;44.264;19.884;2024-03-23T02:11:22;58.90;;;37.17;;
55328;SDS011;41205;44.264;19.884;2024-03-23T02:13:48;28.98;;;20.05;;
55328;SDS011;41205;44.264;19.884;2024-03-23T02:16:14;24.83;;;15.25;;
55328;SDS011;41205;44.264;19.884;2024-03-23T02:18:40;25.13;;;18.13;;
55328;SDS011;41205;44.264;19.884;2024-03-23T02:21:06;29.10;;;18.35;;
55328;SDS011;41205;44.264;19.884;2024-03-23T02:23:32;37.85;;;21.42;;
55328;SDS011;41205;44.264;19.884;2024-03-23T02:25:57;25.65;;;16.20;;
55328;SDS011;41205;44.264;19.884;2024-03-23T02:28:23;39.78;;;23.65;;
55328;SDS011;41205;44.264;19.884;2024-03-23T02:30:49;29.88;;;19.92;;
55328;SDS011;41205;44.264;19.884;2024-03-23T02:33:15;24.33;;;14.48;;
55328;SDS011;41205;44.264;19.884;2024-03-23T02:35:41;22.67;;;17.15;;
55328;SDS011;41205;44.264;19.884;2024-03-23T02:38:08;29.45;;;16.23;;
55328;SDS011;41205;44.264;19.884;2024-03-23T02:40:34;45.53;;;25.60;;
55328;SDS011;41205;44.264;19.884;2024-03-23T02:43:02;54.92;;;31.05;;
55328;SDS011;41205;44.264;19.884;2024-03-23T02:45:28;41.47;;;23.58;;
55328;SDS011;41205;44.264;19.884;2024-03-23T02:47:54;63.88;;;39.88;;
55328;SDS011;41205;44.264;19.884;2024-03-23T02:50:20;85.97;;;49.35;;
55328;SDS011;41205;44.264;19.884;2024-03-23T02:52:47;101.55;;;57.88;;
55328;SDS011;41205;44.264;19.884;2024-03-23T02:55:13;50.67;;;32.28;;
55328;SDS011;41205;44.264;19.884;2024-03-23T02:57:40;52.03;;;31.73;;
55328;SDS011;41205;44.264;19.884;2024-03-23T03:00:06;30.13;;;20.27;;
55328;SDS011;41205;44.264;19.884;2024-03-23T03:02:33;26.00;;;16.38;;
55328;SDS011;41205;44.264;19.884;2024-03-23T03:04:59;24.17;;;15.90;;
55328;SDS011;41205;44.264;19.884;2024-03-23T03:07:24;43.10;;;25.17;;
55328;SDS011;41205;44.264;19.884;2024-03-23T03:09:50;52.28;;;29.88;;
55328;SDS011;41205;44.264;19.884;2024-03-23T03:12:16;125.03;;;72.20;;
55328;SDS011;41205;44.264;19.884;2024-03-23T03:14:42;136.63;;;70.97;;
55328;SDS011;41205;44.264;19.884;2024-03-23T03:17:08;48.25;;;27.33;;
55328;SDS011;41205;44.264;19.884;2024-03-23T03:19:34;73.38;;;42.60;;
55328;SDS011;41205;44.264;19.884;2024-03-23T03:22:00;59.70;;;33.20;;
55328;SDS011;41205;44.264;19.884;2024-03-23T03:24:25;30.48;;;17.83;;
55328;SDS011;41205;44.264;19.884;2024-03-23T03:26:51;32.97;;;19.60;;
55328;SDS011;41205;44.264;19.884;2024-03-23T03:29:17;38.45;;;22.52;;
55328;SDS011;41205;44.264;19.884;2024-03-23T03:31:43;53.97;;;29.58;;
55328;SDS011;41205;44.264;19.884;2024-03-23T03:34:09;30.02;;;16.98;;
55328;SDS011;41205;44.264;19.884;2024-03-23T03:36:35;23.45;;;16.00;;
55328;SDS011;41205;44.264;19.884;2024-03-23T03:39:01;24.85;;;15.70;;
55328;SDS011;41205;44.264;19.884;2024-03-23T03:41:30;17.45;;;11.85;;
55328;SDS011;41205;44.264;19.884;2024-03-23T03:43:57;22.77;;;14.75;;
55328;SDS011;41205;44.264;19.884;2024-03-23T03:46:26;30.20;;;17.40;;
55328;SDS011;41205;44.264;19.884;2024-03-23T03:48:55;32.60;;;21.15;;
55328;SDS011;41205;44.264;19.884;2024-03-23T03:51:21;26.15;;;22.35;;
55328;SDS011;41205;44.264;19.884;2024-03-23T03:53:47;26.88;;;14.05;;
55328;SDS011;41205;44.264;19.884;2024-03-23T03:56:13;21.20;;;15.63;;
55328;SDS011;41205;44.264;19.884;2024-03-23T03:58:38;33.75;;;21.73;;
55328;SDS011;41205;44.264;19.884;2024-03-23T04:01:05;29.90;;;18.50;;
55328;SDS011;41205;44.264;19.884;2024-03-23T04:03:31;18.85;;;13.80;;
55328;SDS011;41205;44.264;19.884;2024-03-23T04:05:57;21.23;;;13.57;;
55328;SDS011;41205;44.264;19.884;2024-03-23T04:08:23;18.00;;;11.73;;
55328;SDS011;41205;44.264;19.884;2024-03-23T04:10:49;35.35;;;31.17;;
55328;SDS011;41205;44.264;19.884;2024-03-23T04:13:15;20.23;;;16.73;;
55328;SDS011;41205;44.264;19.884;2024-03-23T04:15:41;15.82;;;10.55;;
55328;SDS011;41205;44.264;19.884;2024-03-23T04:18:08;19.17;;;11.50;;
55328;SDS011;41205;44.264;19.884;2024-03-23T04:20:33;17.67;;;11.63;;
55328;SDS011;41205;44.264;19.884;2024-03-23T04:22:59;28.13;;;18.90;;
55328;SDS011;41205;44.264;19.884;2024-03-23T04:25:25;35.75;;;19.48;;
55328;SDS011;41205;44.264;19.884;2024-03-23T04:27:51;18.20;;;12.43;;
55328;SDS011;41205;44.264;19.884;2024-03-23T04:30:17;16.38;;;11.98;;
55328;SDS011;41205;44.264;19.884;2024-03-23T04:32:44;15.93;;;10.57;;
55328;SDS011;41205;44.264;19.884;2024-03-23T04:35:10;21.73;;;12.43;;
55328;SDS011;41205;44.264;19.884;2024-03-23T04:37:36;19.23;;;12.73;;
55328;SDS011;41205;44.264;19.884;2024-03-23T04:40:03;23.50;;;14.45;;
55328;SDS011;41205;44.264;19.884;2024-03-23T04:42:30;18.85;;;12.45;;
55328;SDS011;41205;44.264;19.884;2024-03-23T04:44:56;17.60;;;12.55;;
55328;SDS011;41205;44.264;19.884;2024-03-23T04:47:22;21.40;;;15.13;;
55328;SDS011;41205;44.264;19.884;2024-03-23T04:49:48;18.33;;;13.48;;
55328;SDS011;41205;44.264;19.884;2024-03-23T04:52:14;20.95;;;13.30;;
55328;SDS011;41205;44.264;19.884;2024-03-23T04:54:41;23.90;;;13.32;;
55328;SDS011;41205;44.264;19.884;2024-03-23T04:57:07;16.77;;;12.10;;
55328;SDS011;41205;44.264;19.884;2024-03-23T04:59:33;19.98;;;13.55;;
55328;SDS011;41205;44.264;19.884;2024-03-23T05:01:59;19.13;;;12.13;;
55328;SDS011;41205;44.264;19.884;2024-03-23T05:04:25;22.75;;;13.38;;
55328;SDS011;41205;44.264;19.884;2024-03-23T05:06:51;23.30;;;13.10;;
55328;SDS011;41205;44.264;19.884;2024-03-23T05:09:17;19.75;;;13.15;;
55328;SDS011;41205;44.264;19.884;2024-03-23T05:11:43;16.92;;;11.43;;
55328;SDS011;41205;44.264;19.884;2024-03-23T05:14:09;19.52;;;12.90;;
55328;SDS011;41205;44.264;19.884;2024-03-23T05:16:36;21.02;;;16.13;;
55328;SDS011;41205;44.264;19.884;2024-03-23T05:19:01;26.80;;;15.13;;
55328;SDS011;41205;44.264;19.884;2024-03-23T05:21:27;21.42;;;13.02;;
55328;SDS011;41205;44.264;19.884;2024-03-23T05:23:53;24.95;;;15.80;;
55328;SDS011;41205;44.264;19.884;2024-03-23T05:26:20;22.08;;;14.63;;
55328;SDS011;41205;44.264;19.884;2024-03-23T05:28:46;18.65;;;13.27;;
55328;SDS011;41205;44.264;19.884;2024-03-23T05:31:12;20.10;;;12.60;;
55328;SDS011;41205;44.264;19.884;2024-03-23T05:33:47;19.52;;;13.88;;
55328;SDS011;41205;44.264;19.884;2024-03-23T05:36:13;54.13;;;31.75;;
55328;SDS011;41205;44.264;19.884;2024-03-23T05:38:39;51.13;;;30.75;;
55328;SDS011;41205;44.264;19.884;2024-03-23T05:41:05;47.20;;;33.53;;
55328;SDS011;41205;44.264;19.884;2024-03-23T05:43:30;53.28;;;31.42;;
55328;SDS011;41205;44.264;19.884;2024-03-23T05:45:56;70.78;;;42.22;;
55328;SDS011;41205;44.264;19.884;2024-03-23T05:48:24;38.10;;;25.90;;
55328;SDS011;41205;44.264;19.884;2024-03-23T05:50:55;46.20;;;33.53;;
55328;SDS011;41205;44.264;19.884;2024-03-23T05:53:21;52.88;;;35.40;;
55328;SDS011;41205;44.264;19.884;2024-03-23T05:55:47;41.85;;;29.20;;
55328;SDS011;41205;44.264;19.884;2024-03-23T05:58:14;35.40;;;23.98;;
55328;SDS011;41205;44.264;19.884;2024-03-23T06:00:41;22.35;;;15.43;;
55328;SDS011;41205;44.264;19.884;2024-03-23T06:03:07;25.23;;;16.58;;
55328;SDS011;41205;44.264;19.884;2024-03-23T06:05:33;18.38;;;14.40;;
55328;SDS011;41205;44.264;19.884;2024-03-23T06:07:59;19.48;;;13.70;;
55328;SDS011;41205;44.264;19.884;2024-03-23T06:10:25;19.05;;;13.77;;
55328;SDS011;41205;44.264;19.884;2024-03-23T06:12:51;21.33;;;17.35;;
55328;SDS011;41205;44.264;19.884;2024-03-23T06:15:20;21.75;;;16.95;;
55328;SDS011;41205;44.264;19.884;2024-03-23T06:17:47;20.58;;;14.52;;
55328;SDS011;41205;44.264;19.884;2024-03-23T06:20:13;17.58;;;13.15;;
55328;SDS011;41205;44.264;19.884;2024-03-23T06:22:40;14.15;;;11.48;;
55328;SDS011;41205;44.264;19.884;2024-03-23T06:25:06;22.45;;;19.52;;
55328;SDS011;41205;44.264;19.884;2024-03-23T06:27:34;26.10;;;23.05;;
55328;SDS011;41205;44.264;19.884;2024-03-23T06:30:00;29.95;;;25.42;;
55328;SDS011;41205;44.264;19.884;2024-03-23T06:32:27;29.67;;;26.02;;
55328;SDS011;41205;44.264;19.884;2024-03-23T06:34:54;29.27;;;24.30;;
55328;SDS011;41205;44.264;19.884;2024-03-23T06:37:20;27.60;;;22.77;;
55328;SDS011;41205;44.264;19.884;2024-03-23T06:39:46;31.85;;;26.33;;
55328;SDS011;41205;44.264;19.884;2024-03-23T06:42:12;34.55;;;28.65;;
55328;SDS011;41205;44.264;19.884;2024-03-23T06:44:38;42.35;;;35.42;;
55328;SDS011;41205;44.264;19.884;2024-03-23T06:47:04;37.45;;;30.42;;
55328;SDS011;41205;44.264;19.884;2024-03-23T06:49:30;33.38;;;28.40;;
55328;SDS011;41205;44.264;19.884;2024-03-23T06:51:56;30.52;;;26.48;;
55328;SDS011;41205;44.264;19.884;2024-03-23T06:54:22;26.10;;;23.15;;
55328;SDS011;41205;44.264;19.884;2024-03-23T06:56:50;25.90;;;23.20;;
55328;SDS011;41205;44.264;19.884;2024-03-23T06:59:16;25.73;;;22.38;;
55328;SDS011;41205;44.264;19.884;2024-03-23T07:01:42;30.50;;;24.58;;
55328;SDS011;41205;44.264;19.884;2024-03-23T07:04:08;28.38;;;25.45;;
55328;SDS011;41205;44.264;19.884;2024-03-23T07:06:34;29.48;;;25.52;;
55328;SDS011;41205;44.264;19.884;2024-03-23T07:09:08;23.35;;;20.85;;
55328;SDS011;41205;44.264;19.884;2024-03-23T07:11:34;33.97;;;27.05;;
55328;SDS011;41205;44.264;19.884;2024-03-23T07:13:59;35.42;;;30.88;;
55328;SDS011;41205;44.264;19.884;2024-03-23T07:16:26;41.50;;;37.17;;
55328;SDS011;41205;44.264;19.884;2024-03-23T07:18:52;44.15;;;38.00;;
55328;SDS011;41205;44.264;19.884;2024-03-23T07:21:18;42.80;;;37.45;;
55328;SDS011;41205;44.264;19.884;2024-03-23T07:23:43;44.47;;;38.72;;
55328;SDS011;41205;44.264;19.884;2024-03-23T07:26:10;52.08;;;42.00;;
55328;SDS011;41205;44.264;19.884;2024-03-23T07:28:36;43.20;;;38.00;;
55328;SDS011;41205;44.264;19.884;2024-03-23T07:33:30;47.53;;;42.35;;
55328;SDS011;41205;44.264;19.884;2024-03-23T07:35:56;50.60;;;45.08;;
55328;SDS011;41205;44.264;19.884;2024-03-23T07:38:24;50.08;;;44.55;;
55328;SDS011;41205;44.264;19.884;2024-03-23T07:40:51;51.15;;;45.38;;
55328;SDS011;41205;44.264;19.884;2024-03-23T07:43:21;54.88;;;49.28;;
55328;SDS011;41205;44.264;19.884;2024-03-23T07:45:53;52.40;;;45.92;;
55328;SDS011;41205;44.264;19.884;2024-03-23T07:48:20;53.13;;;45.70;;
55328;SDS011;41205;44.264;19.884;2024-03-23T07:50:56;53.22;;;43.88;;
55328;SDS011;41205;44.264;19.884;2024-03-23T07:53:22;46.53;;;39.97;;
55328;SDS011;41205;44.264;19.884;2024-03-23T07:55:54;43.83;;;39.28;;
55328;SDS011;41205;44.264;19.884;2024-03-23T08:00:46;40.30;;;35.97;;
55328;SDS011;41205;44.264;19.884;2024-03-23T08:03:12;36.50;;;32.63;;
55328;SDS011;41205;44.264;19.884;2024-03-23T08:05:38;37.35;;;33.08;;
55328;SDS011;41205;44.264;19.884;2024-03-23T08:08:04;42.33;;;37.85;;
55328;SDS011;41205;44.264;19.884;2024-03-23T08:10:30;38.90;;;35.10;;
55328;SDS011;41205;44.264;19.884;2024-03-23T08:12:56;38.03;;;34.25;;
55328;SDS011;41205;44.264;19.884;2024-03-23T08:15:21;46.10;;;36.65;;
55328;SDS011;41205;44.264;19.884;2024-03-23T08:17:48;39.92;;;35.47;;
55328;SDS011;41205;44.264;19.884;2024-03-23T08:20:14;39.22;;;35.08;;
55328;SDS011;41205;44.264;19.884;2024-03-23T08:22:40;40.00;;;31.63;;
55328;SDS011;41205;44.264;19.884;2024-03-23T08:25:06;39.15;;;34.97;;
55328;SDS011;41205;44.264;19.884;2024-03-23T08:27:32;41.03;;;35.22;;
55328;SDS011;41205;44.264;19.884;2024-03-23T08:29:58;32.20;;;28.58;;
55328;SDS011;41205;44.264;19.884;2024-03-23T08:32:24;31.25;;;27.98;;
55328;SDS011;41205;44.264;19.884;2024-03-23T08:34:50;29.85;;;26.88;;
55328;SDS011;41205;44.264;19.884;2024-03-23T08:37:15;29.38;;;26.48;;
55328;SDS011;41205;44.264;19.884;2024-03-23T08:39:44;23.80;;;20.30;;
55328;SDS011;41205;44.264;19.884;2024-03-23T08:42:10;25.25;;;19.17;;
55328;SDS011;41205;44.264;19.884;2024-03-23T08:44:36;27.67;;;21.95;;
55328;SDS011;41205;44.264;19.884;2024-03-23T08:47:01;26.70;;;22.60;;
55328;SDS011;41205;44.264;19.884;2024-03-23T08:49:27;25.15;;;21.92;;
55328;SDS011;41205;44.264;19.884;2024-03-23T08:51:53;21.85;;;19.55;;
55328;SDS011;41205;44.264;19.884;2024-03-23T08:54:19;19.33;;;16.90;;
55328;SDS011;41205;44.264;19.884;2024-03-23T08:56:48;20.42;;;18.27;;
55328;SDS011;41205;44.264;19.884;2024-03-23T08:59:14;17.73;;;15.70;;
55328;SDS011;41205;44.264;19.884;2024-03-23T09:01:39;17.35;;;15.55;;
55328;SDS011;41205;44.264;19.884;2024-03-23T09:04:05;17.65;;;15.98;;
55328;SDS011;41205;44.264;19.884;2024-03-23T09:06:31;14.05;;;12.75;;
55328;SDS011;41205;44.264;19.884;2024-03-23T09:08:57;12.40;;;11.13;;
55328;SDS011;41205;44.264;19.884;2024-03-23T09:11:23;16.35;;;13.70;;
55328;SDS011;41205;44.264;19.884;2024-03-23T09:13:48;17.27;;;15.48;;
55328;SDS011;41205;44.264;19.884;2024-03-23T09:16:14;18.40;;;12.35;;
55328;SDS011;41205;44.264;19.884;2024-03-23T09:18:40;19.27;;;15.68;;
55328;SDS011;41205;44.264;19.884;2024-03-23T09:21:12;37.70;;;33.05;;
55328;SDS011;41205;44.264;19.884;2024-03-23T09:26:04;17.65;;;13.55;;
55328;SDS011;41205;44.264;19.884;2024-03-23T09:28:32;27.58;;;19.15;;
55328;SDS011;41205;44.264;19.884;2024-03-23T09:31:04;8.82;;;6.80;;
55328;SDS011;41205;44.264;19.884;2024-03-23T09:33:40;7.97;;;4.70;;
55328;SDS011;41205;44.264;19.884;2024-03-23T09:36:07;9.00;;;6.15;;
55328;SDS011;41205;44.264;19.884;2024-03-23T09:38:34;6.75;;;5.60;;
55328;SDS011;41205;44.264;19.884;2024-03-23T09:41:00;7.43;;;5.13;;
55328;SDS011;41205;44.264;19.884;2024-03-23T09:43:33;36.92;;;8.55;;
55328;SDS011;41205;44.264;19.884;2024-03-23T09:45:59;5.22;;;4.68;;
55328;SDS011;41205;44.264;19.884;2024-03-23T09:48:25;6.57;;;4.88;;
55328;SDS011;41205;44.264;19.884;2024-03-23T09:50:51;7.25;;;5.60;;
55328;SDS011;41205;44.264;19.884;2024-03-23T09:53:17;7.88;;;6.57;;
55328;SDS011;41205;44.264;19.884;2024-03-23T09:55:44;8.68;;;6.43;;
55328;SDS011;41205;44.264;19.884;2024-03-23T09:58:14;6.72;;;5.45;;
55328;SDS011;41205;44.264;19.884;2024-03-23T10:00:41;6.22;;;5.57;;
55328;SDS011;41205;44.264;19.884;2024-03-23T10:03:07;6.93;;;5.28;;
55328;SDS011;41205;44.264;19.884;2024-03-23T10:05:38;8.60;;;6.45;;
55328;SDS011;41205;44.264;19.884;2024-03-23T10:10:42;7.07;;;4.50;;
55328;SDS011;41205;44.264;19.884;2024-03-23T10:13:09;5.55;;;4.72;;
55328;SDS011;41205;44.264;19.884;2024-03-23T10:15:36;6.65;;;4.95;;
55328;SDS011;41205;44.264;19.884;2024-03-23T10:18:20;14.40;;;11.32;;
55328;SDS011;41205;44.264;19.884;2024-03-23T10:20:50;6.60;;;5.88;;
55328;SDS011;41205;44.264;19.884;2024-03-23T10:23:31;5.82;;;4.90;;
55328;SDS011;41205;44.264;19.884;2024-03-23T10:26:17;6.55;;;5.78;;
55328;SDS011;41205;44.264;19.884;2024-03-23T10:31:30;5.75;;;4.60;;
55328;SDS011;41205;44.264;19.884;2024-03-23T10:33:56;5.75;;;4.53;;
55328;SDS011;41205;44.264;19.884;2024-03-23T10:36:23;6.78;;;5.28;;
55328;SDS011;41205;44.264;19.884;2024-03-23T10:38:51;7.40;;;5.40;;
55328;SDS011;41205;44.264;19.884;2024-03-23T10:41:17;5.65;;;4.00;;
55328;SDS011;41205;44.264;19.884;2024-03-23T10:43:47;5.97;;;4.40;;
55328;SDS011;41205;44.264;19.884;2024-03-23T10:46:14;6.20;;;4.70;;
55328;SDS011;41205;44.264;19.884;2024-03-23T10:48:40;8.18;;;4.90;;
55328;SDS011;41205;44.264;19.884;2024-03-23T10:51:08;5.82;;;4.45;;
55328;SDS011;41205;44.264;19.884;2024-03-23T10:53:35;8.48;;;4.93;;
55328;SDS011;41205;44.264;19.884;2024-03-23T10:56:02;6.25;;;4.25;;
55328;SDS011;41205;44.264;19.884;2024-03-23T10:58:39;6.05;;;4.10;;
55328;SDS011;41205;44.264;19.884;2024-03-23T11:01:10;5.82;;;3.47;;
55328;SDS011;41205;44.264;19.884;2024-03-23T11:03:37;4.75;;;3.45;;
55328;SDS011;41205;44.264;19.884;2024-03-23T11:06:05;5.82;;;3.70;;
55328;SDS011;41205;44.264;19.884;2024-03-23T11:08:39;6.35;;;3.85;;
55328;SDS011;41205;44.264;19.884;2024-03-23T11:11:15;7.63;;;4.22;;
55328;SDS011;41205;44.264;19.884;2024-03-23T11:13:42;4.75;;;4.18;;
55328;SDS011;41205;44.264;19.884;2024-03-23T11:18:41;5.50;;;3.67;;
55328;SDS011;41205;44.264;19.884;2024-03-23T11:21:08;7.50;;;4.78;;
55328;SDS011;41205;44.264;19.884;2024-03-23T11:23:35;6.10;;;3.80;;
55328;SDS011;41205;44.264;19.884;2024-03-23T11:26:01;5.32;;;3.90;;
55328;SDS011;41205;44.264;19.884;2024-03-23T11:28:27;6.13;;;4.63;;
55328;SDS011;41205;44.264;19.884;2024-03-23T11:30:53;5.05;;;3.63;;
55328;SDS011;41205;44.264;19.884;2024-03-23T11:33:19;6.28;;;4.05;;
55328;SDS011;41205;44.264;19.884;2024-03-23T11:35:45;7.10;;;4.55;;
55328;SDS011;41205;44.264;19.884;2024-03-23T11:38:17;4.75;;;4.10;;
55328;SDS011;41205;44.264;19.884;2024-03-23T11:40:45;5.90;;;4.20;;
55328;SDS011;41205;44.264;19.884;2024-03-23T11:48:12;5.18;;;4.63;;
55328;SDS011;41205;44.264;19.884;2024-03-23T11:50:39;8.15;;;6.20;;
55328;SDS011;41205;44.264;19.884;2024-03-23T11:53:12;5.22;;;3.75;;
55328;SDS011;41205;44.264;19.884;2024-03-23T11:55:49;4.60;;;4.00;;
55328;SDS011;41205;44.264;19.884;2024-03-23T11:58:17;5.75;;;4.20;;
55328;SDS011;41205;44.264;19.884;2024-03-23T12:00:55;7.95;;;5.05;;
55328;SDS011;41205;44.264;19.884;2024-03-23T12:03:25;5.60;;;4.43;;
55328;SDS011;41205;44.264;19.884;2024-03-23T12:05:53;47.88;;;24.42;;
55328;SDS011;41205;44.264;19.884;2024-03-23T12:11:07;8.05;;;4.80;;
55328;SDS011;41205;44.264;19.884;2024-03-23T12:13:34;7.35;;;4.93;;
55328;SDS011;41205;44.264;19.884;2024-03-23T12:18:39;5.95;;;4.95;;
55328;SDS011;41205;44.264;19.884;2024-03-23T12:21:07;6.32;;;4.95;;
55328;SDS011;41205;44.264;19.884;2024-03-23T12:23:33;6.32;;;4.90;;
55328;SDS011;41205;44.264;19.884;2024-03-23T12:26:00;8.32;;;5.50;;
55328;SDS011;41205;44.264;19.884;2024-03-23T12:28:26;9.35;;;5.78;;
55328;SDS011;41205;44.264;19.884;2024-03-23T12:30:52;11.07;;;9.82;;
55328;SDS011;41205;44.264;19.884;2024-03-23T12:33:19;6.03;;;4.82;;
55328;SDS011;41205;44.264;19.884;2024-03-23T12:35:45;13.13;;;10.68;;
55328;SDS011;41205;44.264;19.884;2024-03-23T12:38:11;16.85;;;6.65;;
55328;SDS011;41205;44.264;19.884;2024-03-23T12:40:37;9.43;;;5.20;;
55328;SDS011;41205;44.264;19.884;2024-03-23T12:43:02;10.25;;;6.07;;
55328;SDS011;41205;44.264;19.884;2024-03-23T12:45:28;6.63;;;5.00;;
55328;SDS011;41205;44.264;19.884;2024-03-23T12:47:54;8.25;;;5.88;;
55328;SDS011;41205;44.264;19.884;2024-03-23T12:50:20;12.75;;;7.97;;
55328;SDS011;41205;44.264;19.884;2024-03-23T12:52:47;12.80;;;7.18;;
55328;SDS011;41205;44.264;19.884;2024-03-23T12:55:13;10.02;;;6.18;;
55328;SDS011;41205;44.264;19.884;2024-03-23T12:57:39;7.15;;;6.13;;
55328;SDS011;41205;44.264;19.884;2024-03-23T13:00:06;9.18;;;6.00;;
55328;SDS011;41205;44.264;19.884;2024-03-23T13:02:34;7.95;;;5.57;;
55328;SDS011;41205;44.264;19.884;2024-03-23T13:05:00;9.65;;;5.20;;
55328;SDS011;41205;44.264;19.884;2024-03-23T13:07:26;6.55;;;5.47;;
55328;SDS011;41205;44.264;19.884;2024-03-23T13:09:52;6.38;;;4.82;;
55328;SDS011;41205;44.264;19.884;2024-03-23T13:12:21;8.63;;;5.80;;
55328;SDS011;41205;44.264;19.884;2024-03-23T13:14:47;55.38;;;46.70;;
55328;SDS011;41205;44.264;19.884;2024-03-23T13:17:13;14.88;;;12.60;;
55328;SDS011;41205;44.264;19.884;2024-03-23T13:19:40;7.93;;;7.13;;
55328;SDS011;41205;44.264;19.884;2024-03-23T13:22:06;9.25;;;7.10;;
55328;SDS011;41205;44.264;19.884;2024-03-23T13:24:32;8.50;;;5.60;;
55328;SDS011;41205;44.264;19.884;2024-03-23T13:26:58;7.35;;;5.50;;
55328;SDS011;41205;44.264;19.884;2024-03-23T13:29:24;7.10;;;5.75;;
55328;SDS011;41205;44.264;19.884;2024-03-23T13:31:51;10.27;;;6.30;;
55328;SDS011;41205;44.264;19.884;2024-03-23T13:34:17;12.75;;;8.38;;
55328;SDS011;41205;44.264;19.884;2024-03-23T13:36:44;13.73;;;10.10;;
55328;SDS011;41205;44.264;19.884;2024-03-23T13:39:11;9.55;;;6.38;;
55328;SDS011;41205;44.264;19.884;2024-03-23T13:41:40;6.72;;;5.32;;
55328;SDS011;41205;44.264;19.884;2024-03-23T13:44:07;7.47;;;5.43;;
55328;SDS011;41205;44.264;19.884;2024-03-23T13:46:41;7.47;;;6.03;;
55328;SDS011;41205;44.264;19.884;2024-03-23T13:49:33;9.00;;;5.38;;
55328;SDS011;41205;44.264;19.884;2024-03-23T13:51:58;8.63;;;5.88;;
55328;SDS011;41205;44.264;19.884;2024-03-23T13:54:24;7.45;;;5.32;;
55328;SDS011;41205;44.264;19.884;2024-03-23T13:56:51;11.30;;;6.72;;
55328;SDS011;41205;44.264;19.884;2024-03-23T13:59:18;9.45;;;6.50;;
55328;SDS011;41205;44.264;19.884;2024-03-23T14:01:44;9.02;;;7.00;;
55328;SDS011;41205;44.264;19.884;2024-03-23T14:04:11;9.05;;;6.85;;
55328;SDS011;41205;44.264;19.884;2024-03-23T14:06:37;7.55;;;5.85;;
55328;SDS011;41205;44.264;19.884;2024-03-23T14:09:03;8.30;;;6.47;;
55328;SDS011;41205;44.264;19.884;2024-03-23T14:11:29;9.80;;;7.63;;
55328;SDS011;41205;44.264;19.884;2024-03-23T14:13:56;8.43;;;6.10;;
55328;SDS011;41205;44.264;19.884;2024-03-23T14:16:22;10.40;;;7.25;;
55328;SDS011;41205;44.264;19.884;2024-03-23T14:18:47;7.20;;;5.47;;
55328;SDS011;41205;44.264;19.884;2024-03-23T14:21:13;8.57;;;5.22;;
55328;SDS011;41205;44.264;19.884;2024-03-23T14:23:39;7.10;;;5.63;;
55328;SDS011;41205;44.264;19.884;2024-03-23T14:26:08;5.72;;;4.85;;
55328;SDS011;41205;44.264;19.884;2024-03-23T14:28:34;6.28;;;5.00;;
55328;SDS011;41205;44.264;19.884;2024-03-23T14:31:00;6.28;;;5.15;;
55328;SDS011;41205;44.264;19.884;2024-03-23T14:33:26;7.80;;;5.53;;
55328;SDS011;41205;44.264;19.884;2024-03-23T14:35:52;5.80;;;5.20;;
55328;SDS011;41205;44.264;19.884;2024-03-23T14:38:20;7.63;;;5.75;;
55328;SDS011;41205;44.264;19.884;2024-03-23T14:40:46;8.15;;;6.70;;
55328;SDS011;41205;44.264;19.884;2024-03-23T14:43:12;10.50;;;7.95;;
55328;SDS011;41205;44.264;19.884;2024-03-23T14:48:32;9.88;;;6.22;;
55328;SDS011;41205;44.264;19.884;2024-03-23T14:50:59;8.90;;;6.05;;
55328;SDS011;41205;44.264;19.884;2024-03-23T14:53:25;13.32;;;9.75;;
55328;SDS011;41205;44.264;19.884;2024-03-23T14:55:55;11.02;;;8.00;;
55328;SDS011;41205;44.264;19.884;2024-03-23T14:58:25;9.35;;;7.55;;
55328;SDS011;41205;44.264;19.884;2024-03-23T15:00:51;11.88;;;8.85;;
55328;SDS011;41205;44.264;19.884;2024-03-23T15:03:17;11.13;;;8.65;;
55328;SDS011;41205;44.264;19.884;2024-03-23T15:06:02;7.53;;;6.13;;
55328;SDS011;41205;44.264;19.884;2024-03-23T15:08:27;8.73;;;6.95;;
55328;SDS011;41205;44.264;19.884;2024-03-23T15:10:54;10.48;;;7.00;;
55328;SDS011;41205;44.264;19.884;2024-03-23T15:13:20;16.65;;;8.38;;
55328;SDS011;41205;44.264;19.884;2024-03-23T15:15:49;10.05;;;7.20;;
55328;SDS011;41205;44.264;19.884;2024-03-23T15:18:16;12.10;;;9.20;;
55328;SDS011;41205;44.264;19.884;2024-03-23T15:21:00;15.98;;;9.02;;
55328;SDS011;41205;44.264;19.884;2024-03-23T15:23:37;14.05;;;9.32;;
55328;SDS011;41205;44.264;19.884;2024-03-23T15:26:03;11.23;;;7.97;;
55328;SDS011;41205;44.264;19.884;2024-03-23T15:28:31;13.05;;;10.10;;
55328;SDS011;41205;44.264;19.884;2024-03-23T15:31:04;18.23;;;12.35;;
55328;SDS011;41205;44.264;19.884;2024-03-23T15:33:30;28.73;;;19.10;;
55328;SDS011;41205;44.264;19.884;2024-03-23T15:35:59;23.30;;;13.75;;
55328;SDS011;41205;44.264;19.884;2024-03-23T15:38:26;14.57;;;10.98;;